createdAt,value
2019-05-25T00:02:09.121Z,11.95
2019-05-25T00:04:38.908Z,11.97
2019-05-25T00:07:08.711Z,11.93
2019-05-25T00:09:38.498Z,11.83
2019-05-25T00:12:08.244Z,11.72
2019-05-25T00:14:38.002Z,11.60
2019-05-25T00:17:07.697Z,11.47
2019-05-25T00:19:37.418Z,11.40
2019-05-25T00:22:07.080Z,11.38
2019-05-25T00:24:36.775Z,11.40
2019-05-25T00:27:07.597Z,11.45
2019-05-25T00:29:37.343Z,11.45
2019-05-25T00:32:07.033Z,11.43
2019-05-25T00:34:37.213Z,11.39
2019-05-25T00:37:07.164Z,11.34
2019-05-25T00:39:36.862Z,11.30
2019-05-25T00:42:06.585Z,11.24
2019-05-25T00:44:36.387Z,11.18
2019-05-25T00:47:06.077Z,11.11
2019-05-25T00:49:35.766Z,11.01
2019-05-25T00:52:05.610Z,10.84
2019-05-25T00:54:35.347Z,10.79
2019-05-25T00:57:05.142Z,10.74
2019-05-25T00:59:34.820Z,10.74
2019-05-25T01:02:04.887Z,10.75
2019-05-25T01:04:34.583Z,10.76
2019-05-25T01:07:04.421Z,10.76
2019-05-25T01:09:34.096Z,10.73
2019-05-25T01:12:03.803Z,10.73
2019-05-25T01:14:33.546Z,10.72
2019-05-25T01:17:03.244Z,10.71
2019-05-25T01:19:33.074Z,10.76
2019-05-25T01:22:02.898Z,10.87
2019-05-25T01:24:44.032Z,11.03
2019-05-25T01:27:04.394Z,11.16
2019-05-25T01:29:34.044Z,11.27
2019-05-25T01:32:04.184Z,11.35
2019-05-25T01:34:33.861Z,11.44
2019-05-25T01:37:03.616Z,11.52
2019-05-25T01:39:33.285Z,11.58
2019-05-25T01:42:02.976Z,11.62
2019-05-25T01:44:32.665Z,11.65
2019-05-25T01:47:02.581Z,11.70
2019-05-25T01:49:32.273Z,11.76
2019-05-25T01:52:02.005Z,11.79
2019-05-25T01:54:31.677Z,11.82
2019-05-25T01:57:01.379Z,11.84
2019-05-25T01:59:31.072Z,11.76
2019-05-25T02:02:00.847Z,11.78
2019-05-25T02:04:30.527Z,11.81
2019-05-25T02:07:00.264Z,11.84
2019-05-25T02:09:29.965Z,11.90
2019-05-25T02:11:59.697Z,11.92
2019-05-25T02:14:29.371Z,11.96
2019-05-25T02:16:59.451Z,12.00
2019-05-25T02:19:29.172Z,12.04
2019-05-25T02:21:58.901Z,12.06
2019-05-25T02:24:28.638Z,12.06
2019-05-25T02:26:58.389Z,12.01
2019-05-25T02:29:28.067Z,12.00
2019-05-25T02:31:57.749Z,11.93
2019-05-25T02:34:28.493Z,11.86
2019-05-25T02:36:58.171Z,11.84
2019-05-25T02:39:27.839Z,11.83
2019-05-25T02:41:58.627Z,11.79
2019-05-25T02:44:28.309Z,11.81
2019-05-25T02:46:58.011Z,11.82
2019-05-25T02:49:27.750Z,11.80
2019-05-25T02:51:57.447Z,11.79
2019-05-25T02:54:27.216Z,11.76
2019-05-25T02:56:57.242Z,11.69
2019-05-25T02:59:26.909Z,11.67
2019-05-25T03:01:57.522Z,11.64
2019-05-25T03:04:27.504Z,11.62
2019-05-25T03:06:58.447Z,11.60
2019-05-25T03:09:30.355Z,11.59
2019-05-25T03:12:00.666Z,11.59
2019-05-25T03:14:30.339Z,11.60
2019-05-25T03:17:01.272Z,11.57
2019-05-25T03:19:31.021Z,11.55
2019-05-25T03:22:00.754Z,11.55
2019-05-25T03:24:30.519Z,11.54
2019-05-25T03:27:00.253Z,11.53
2019-05-25T03:29:29.937Z,11.51
2019-05-25T03:31:59.669Z,11.47
2019-05-25T03:34:30.300Z,11.49
2019-05-25T03:37:00.028Z,11.52
2019-05-25T03:39:29.759Z,11.58
2019-05-25T03:41:59.447Z,11.65
2019-05-25T03:44:29.258Z,11.69
2019-05-25T03:46:59.040Z,11.74
2019-05-25T03:49:28.838Z,11.78
2019-05-25T03:51:58.540Z,11.81
2019-05-25T03:54:28.219Z,11.83
2019-05-25T03:56:57.927Z,11.86
2019-05-25T03:59:27.933Z,11.92
2019-05-25T04:01:57.718Z,11.97
2019-05-25T04:04:27.406Z,11.97
2019-05-25T04:06:57.205Z,11.98
2019-05-25T04:09:26.936Z,11.99
2019-05-25T04:11:56.623Z,12.02
2019-05-25T04:14:26.331Z,12.08
2019-05-25T04:16:55.999Z,12.16
2019-05-25T04:19:25.719Z,12.22
2019-05-25T04:21:55.410Z,12.30
2019-05-25T04:24:25.198Z,12.36
2019-05-25T04:26:54.850Z,12.43
2019-05-25T04:29:25.541Z,12.53
2019-05-25T04:31:55.191Z,12.58
2019-05-25T04:34:24.877Z,12.58
2019-05-25T04:36:54.541Z,12.58
2019-05-25T04:39:24.220Z,12.60
2019-05-25T04:41:53.930Z,12.65
2019-05-25T04:44:23.635Z,12.67
2019-05-25T04:46:53.427Z,12.69
2019-05-25T04:49:23.203Z,12.70
2019-05-25T04:51:52.857Z,12.63
2019-05-25T04:54:22.575Z,12.65
2019-05-25T04:56:52.252Z,12.69
2019-05-25T04:59:21.986Z,12.73
2019-05-25T05:01:51.678Z,12.71
2019-05-25T05:04:21.404Z,12.69
2019-05-25T05:06:51.135Z,12.66
2019-05-25T05:09:20.955Z,12.66
2019-05-25T05:11:50.664Z,12.66
2019-05-25T05:14:20.374Z,12.69
2019-05-25T05:16:50.125Z,12.75
2019-05-25T05:19:19.843Z,12.80
2019-05-25T05:21:49.568Z,12.81
2019-05-25T05:24:19.330Z,12.78
2019-05-25T05:26:55.775Z,12.78
2019-05-25T05:29:20.459Z,12.83
2019-05-25T05:31:50.125Z,12.87
2019-05-25T05:34:19.965Z,12.84
2019-05-25T05:36:50.085Z,12.86
2019-05-25T05:39:20.514Z,12.95
2019-05-25T05:41:51.290Z,13.10
2019-05-25T05:44:22.833Z,13.21
2019-05-25T05:46:53.599Z,13.40
2019-05-25T05:49:24.939Z,13.54
2019-05-25T05:51:57.829Z,13.55
2019-05-25T05:54:28.679Z,13.58
2019-05-25T05:57:11.692Z,13.65
2019-05-25T05:59:29.898Z,13.80
2019-05-25T06:01:59.655Z,13.89
2019-05-25T06:04:29.364Z,13.97
2019-05-25T06:06:59.164Z,14.03
2019-05-25T06:09:28.914Z,14.14
2019-05-25T06:11:58.646Z,14.26
2019-05-25T06:14:29.463Z,14.32
2019-05-25T06:16:59.149Z,14.38
2019-05-25T06:19:28.839Z,14.49
2019-05-25T06:21:58.588Z,14.69
2019-05-25T06:24:28.288Z,14.94
2019-05-25T06:26:57.967Z,16.13
2019-05-25T06:29:27.669Z,17.00
2019-05-25T06:31:57.378Z,17.52
2019-05-25T06:34:27.108Z,17.86
2019-05-25T06:36:56.896Z,17.78
2019-05-25T06:39:26.839Z,17.49
2019-05-25T06:41:56.542Z,17.51
2019-05-25T06:44:26.347Z,17.46
2019-05-25T06:46:56.121Z,17.02
2019-05-25T06:49:25.979Z,16.77
2019-05-25T06:51:55.679Z,16.27
2019-05-25T06:54:25.547Z,15.72
2019-05-25T06:56:55.347Z,15.28
2019-05-25T06:59:25.075Z,15.08
2019-05-25T07:01:54.802Z,15.04
2019-05-25T07:04:24.544Z,15.10
2019-05-25T07:06:54.470Z,15.33
2019-05-25T07:09:24.215Z,15.75
2019-05-25T07:11:55.829Z,16.10
2019-05-25T07:14:26.083Z,16.43
2019-05-25T07:16:55.840Z,16.67
2019-05-25T07:19:25.723Z,17.02
2019-05-25T07:21:55.512Z,17.13
2019-05-25T07:24:25.257Z,17.13
2019-05-25T07:26:54.962Z,17.25
2019-05-25T07:29:24.714Z,17.24
2019-05-25T07:31:54.544Z,17.04
2019-05-25T07:34:24.389Z,16.62
2019-05-25T07:36:54.147Z,16.14
2019-05-25T07:39:23.885Z,15.82
2019-05-25T07:41:53.655Z,15.59
2019-05-25T07:44:23.398Z,15.46
2019-05-25T07:46:53.191Z,15.53
2019-05-25T07:49:22.919Z,15.50
2019-05-25T07:51:52.669Z,15.48
2019-05-25T07:54:23.334Z,15.79
2019-05-25T07:56:53.098Z,16.53
2019-05-25T07:59:22.879Z,17.00
2019-05-25T08:01:52.589Z,17.04
2019-05-25T08:04:22.374Z,16.91
2019-05-25T08:06:52.139Z,16.60
2019-05-25T08:09:21.924Z,16.21
2019-05-25T08:11:51.632Z,15.74
2019-05-25T08:14:21.467Z,15.44
2019-05-25T08:16:51.295Z,15.23
2019-05-25T08:19:21.003Z,15.13
2019-05-25T08:21:50.726Z,15.13
2019-05-25T08:24:20.509Z,15.17
2019-05-25T08:26:50.231Z,15.28
2019-05-25T08:29:19.974Z,15.45
2019-05-25T08:31:49.669Z,15.54
2019-05-25T08:34:19.365Z,15.77
2019-05-25T08:36:49.093Z,15.95
2019-05-25T08:39:18.832Z,16.05
2019-05-25T08:41:48.749Z,15.96
2019-05-25T08:44:18.474Z,15.99
2019-05-25T08:46:48.256Z,15.98
2019-05-25T08:49:18.202Z,16.04
2019-05-25T08:51:48.051Z,15.96
2019-05-25T08:54:17.739Z,15.66
2019-05-25T08:56:47.443Z,15.66
2019-05-25T08:59:17.159Z,15.74
2019-05-25T09:01:47.047Z,15.74
2019-05-25T09:04:16.823Z,15.71
2019-05-25T09:06:46.631Z,15.80
2019-05-25T09:09:16.334Z,15.97
2019-05-25T09:11:46.026Z,16.09
2019-05-25T09:14:15.718Z,16.05
2019-05-25T09:16:45.422Z,15.95
2019-05-25T09:19:15.110Z,15.95
2019-05-25T09:21:59.499Z,15.93
2019-05-25T09:24:16.318Z,15.83
2019-05-25T09:26:46.066Z,15.74
2019-05-25T09:29:15.763Z,15.78
2019-05-25T09:31:45.610Z,15.88
2019-05-25T09:34:15.288Z,16.14
2019-05-25T09:36:45.049Z,16.47
2019-05-25T09:39:14.806Z,16.82
2019-05-25T09:41:44.504Z,17.01
2019-05-25T09:44:14.314Z,17.10
2019-05-25T09:46:51.243Z,17.21
2019-05-25T09:49:21.035Z,17.27
2019-05-25T09:51:51.818Z,17.21
2019-05-25T09:54:21.677Z,17.34
2019-05-25T09:56:52.433Z,17.56
2019-05-25T09:59:23.264Z,17.72
2019-05-25T10:01:53.104Z,17.67
2019-05-25T10:04:22.848Z,17.60
2019-05-25T10:06:53.570Z,17.59
2019-05-25T10:09:23.380Z,17.65
2019-05-25T10:11:53.088Z,17.39
2019-05-25T10:14:22.862Z,17.05
2019-05-25T10:16:52.549Z,16.81
2019-05-25T10:19:22.366Z,16.63
2019-05-25T10:21:52.150Z,16.42
2019-05-25T10:24:22.049Z,16.23
2019-05-25T10:26:51.844Z,16.15
2019-05-25T10:29:36.013Z,15.93
2019-05-25T10:31:52.967Z,15.83
2019-05-25T10:34:22.819Z,15.77
2019-05-25T10:36:52.547Z,15.68
2019-05-25T10:39:22.347Z,15.52
2019-05-25T10:41:53.199Z,15.31
2019-05-25T10:44:23.073Z,15.09
2019-05-25T10:46:52.821Z,14.92
2019-05-25T10:49:22.834Z,14.81
2019-05-25T10:51:52.622Z,14.82
2019-05-25T10:54:22.537Z,14.90
2019-05-25T10:56:52.229Z,14.87
2019-05-25T10:59:23.777Z,14.94
2019-05-25T11:01:54.620Z,15.04
2019-05-25T11:04:24.323Z,15.20
2019-05-25T11:06:54.006Z,15.27
2019-05-25T11:09:23.716Z,15.31
2019-05-25T11:11:53.456Z,15.43
2019-05-25T11:14:23.149Z,15.58
2019-05-25T11:16:52.826Z,15.73
2019-05-25T11:19:24.451Z,15.80
2019-05-25T11:21:53.911Z,15.77
2019-05-25T11:24:23.860Z,15.73
2019-05-25T11:26:53.681Z,15.80
2019-05-25T11:29:23.372Z,15.91
2019-05-25T11:31:56.713Z,16.03
2019-05-25T11:34:24.565Z,16.03
2019-05-25T11:36:54.352Z,15.96
2019-05-25T11:39:24.130Z,15.97
2019-05-25T11:41:53.851Z,15.99
2019-05-25T11:44:23.572Z,15.98
2019-05-25T11:46:53.335Z,15.99
2019-05-25T11:49:23.211Z,15.99
2019-05-25T11:51:53.005Z,16.04
2019-05-25T11:54:22.930Z,16.13
2019-05-25T11:56:52.623Z,16.23
2019-05-25T11:59:22.495Z,16.44
2019-05-25T12:01:52.187Z,16.71
2019-05-25T12:04:21.905Z,16.83
2019-05-25T12:06:51.768Z,16.86
2019-05-25T12:09:21.596Z,16.91
2019-05-25T12:11:51.345Z,16.79
2019-05-25T12:14:21.147Z,16.69
2019-05-25T12:16:50.992Z,16.61
2019-05-25T12:19:20.818Z,16.62
2019-05-25T12:21:50.592Z,16.52
2019-05-25T12:24:20.573Z,16.29
2019-05-25T12:26:50.369Z,16.13
2019-05-25T12:29:20.148Z,16.00
2019-05-25T12:31:49.904Z,15.83
2019-05-25T12:34:19.681Z,15.93
2019-05-25T12:36:49.453Z,15.97
2019-05-25T12:39:19.292Z,15.99
2019-05-25T12:41:49.063Z,16.08
2019-05-25T12:44:18.814Z,16.20
2019-05-25T12:46:48.553Z,16.32
2019-05-25T12:49:18.291Z,16.44
2019-05-25T12:51:48.043Z,16.46
2019-05-25T12:54:17.721Z,16.45
2019-05-25T12:56:47.500Z,16.66
2019-05-25T12:59:17.213Z,16.74
2019-05-25T13:01:46.962Z,16.73
2019-05-25T13:04:16.732Z,16.74
2019-05-25T13:06:46.436Z,16.74
2019-05-25T13:09:16.832Z,16.88
2019-05-25T13:11:46.509Z,16.93
2019-05-25T13:14:16.270Z,17.03
2019-05-25T13:16:46.091Z,17.25
2019-05-25T13:19:15.918Z,17.56
2019-05-25T13:21:45.763Z,17.84
2019-05-25T13:24:15.557Z,18.02
2019-05-25T13:26:45.454Z,18.23
2019-05-25T13:29:15.173Z,18.33
2019-05-25T13:31:44.928Z,18.36
2019-05-25T13:34:14.659Z,18.51
2019-05-25T13:36:44.522Z,18.44
2019-05-25T13:39:14.276Z,18.34
2019-05-25T13:41:44.103Z,18.19
2019-05-25T13:44:13.874Z,18.19
2019-05-25T13:46:43.675Z,18.15
2019-05-25T13:49:13.589Z,17.79
2019-05-25T13:51:43.283Z,17.54
2019-05-25T13:54:13.081Z,17.24
2019-05-25T13:56:42.881Z,17.10
2019-05-25T13:59:12.589Z,16.90
2019-05-25T14:01:42.442Z,16.64
2019-05-25T14:04:12.132Z,16.64
2019-05-25T14:06:41.970Z,16.71
2019-05-25T14:09:15.647Z,16.92
2019-05-25T14:11:43.301Z,17.19
2019-05-25T14:14:13.015Z,17.63
2019-05-25T14:16:42.822Z,17.71
2019-05-25T14:19:12.567Z,17.83
2019-05-25T14:21:42.316Z,18.03
2019-05-25T14:24:12.090Z,18.10
2019-05-25T14:26:41.802Z,17.94
2019-05-25T14:29:11.511Z,17.81
2019-05-25T14:31:45.892Z,17.47
2019-05-25T14:34:12.853Z,17.31
2019-05-25T14:36:42.667Z,17.36
2019-05-25T14:39:12.647Z,17.50
2019-05-25T14:41:42.442Z,17.55
2019-05-25T14:44:12.123Z,17.63
2019-05-25T14:46:42.079Z,17.58
2019-05-25T14:49:11.770Z,17.37
2019-05-25T14:51:41.457Z,17.31
2019-05-25T14:54:11.291Z,17.30
2019-05-25T14:56:41.286Z,17.32
2019-05-25T14:59:10.963Z,17.35
2019-05-25T15:01:40.704Z,17.43
2019-05-25T15:04:10.417Z,17.49
2019-05-25T15:06:40.216Z,17.63
2019-05-25T15:09:09.963Z,17.79
2019-05-25T15:11:39.723Z,17.86
2019-05-25T15:14:09.361Z,17.88
2019-05-25T15:16:39.279Z,17.77
2019-05-25T15:19:09.016Z,17.63
2019-05-25T15:21:38.989Z,17.55
2019-05-25T15:24:08.748Z,17.52
2019-05-25T15:26:38.640Z,17.59
2019-05-25T15:29:11.331Z,17.60
2019-05-25T15:31:39.853Z,17.57
2019-05-25T15:34:09.604Z,17.53
2019-05-25T15:36:39.440Z,17.42
2019-05-25T15:39:09.433Z,17.23
2019-05-25T15:41:39.218Z,17.06
2019-05-25T15:44:09.162Z,16.92
2019-05-25T15:46:39.195Z,16.92
2019-05-25T15:49:09.087Z,16.92
2019-05-25T15:51:38.822Z,16.91
2019-05-25T15:54:10.744Z,17.00
2019-05-25T15:56:40.675Z,17.01
2019-05-25T15:59:10.397Z,17.12
2019-05-25T16:01:40.150Z,17.26
2019-05-25T16:04:09.929Z,17.41
2019-05-25T16:06:39.675Z,17.38
2019-05-25T16:09:09.431Z,17.42
2019-05-25T16:11:39.226Z,17.46
2019-05-25T16:14:08.959Z,17.48
2019-05-25T16:16:38.672Z,17.40
2019-05-25T16:19:08.522Z,17.27
2019-05-25T16:21:38.200Z,17.06
2019-05-25T16:24:08.349Z,16.95
2019-05-25T16:26:45.844Z,16.97
2019-05-25T16:29:09.599Z,17.12
2019-05-25T16:31:39.326Z,17.31
2019-05-25T16:34:09.006Z,17.43
2019-05-25T16:36:38.707Z,17.34
2019-05-25T16:39:08.621Z,17.11
2019-05-25T16:41:38.372Z,17.01
2019-05-25T16:44:08.123Z,16.91
2019-05-25T16:46:37.894Z,16.88
2019-05-25T16:51:35.946Z,16.78
2019-05-25T16:54:06.029Z,16.64
2019-05-25T16:56:35.736Z,16.58
2019-05-25T16:59:05.494Z,16.53
2019-05-25T17:01:47.751Z,16.52
2019-05-25T17:04:06.681Z,16.56
2019-05-25T17:06:36.476Z,16.60
2019-05-25T17:09:07.520Z,16.66
2019-05-25T17:11:37.218Z,16.70
2019-05-25T17:14:06.959Z,16.69
2019-05-25T17:16:36.632Z,16.71
2019-05-25T17:19:06.422Z,16.71
2019-05-25T17:21:36.115Z,16.72
2019-05-25T17:24:05.810Z,16.71
2019-05-25T17:26:35.484Z,16.62
2019-05-25T17:29:05.341Z,16.48
2019-05-25T17:31:35.018Z,16.38
2019-05-25T17:34:04.894Z,16.28
2019-05-25T17:36:34.721Z,16.24
2019-05-25T17:39:06.948Z,16.24
2019-05-25T17:41:36.626Z,16.26
2019-05-25T17:44:06.472Z,16.22
2019-05-25T17:46:36.160Z,16.16
2019-05-25T17:49:05.841Z,16.11
2019-05-25T17:51:35.536Z,16.05
2019-05-25T17:54:05.484Z,16.07
2019-05-25T17:56:35.281Z,16.06
2019-05-25T17:59:05.167Z,16.04
2019-05-25T18:01:34.963Z,16.05
2019-05-25T18:04:07.759Z,16.03
2019-05-25T18:06:37.333Z,16.03
2019-05-25T18:09:08.340Z,16.02
2019-05-25T18:11:38.052Z,15.98
2019-05-25T18:14:08.078Z,15.90
2019-05-25T18:16:37.763Z,15.85
2019-05-25T18:19:07.561Z,15.79
2019-05-25T18:21:37.331Z,15.73
2019-05-25T18:24:07.530Z,15.68
2019-05-25T18:26:37.774Z,15.62
2019-05-25T18:29:07.543Z,15.57
2019-05-25T18:31:37.309Z,15.53
2019-05-25T18:34:21.118Z,15.49
2019-05-25T18:36:38.582Z,15.43
2019-05-25T18:39:08.570Z,15.41
2019-05-25T18:41:38.254Z,15.41
2019-05-25T18:44:08.036Z,15.40
2019-05-25T18:46:37.755Z,15.38
2019-05-25T18:49:07.449Z,15.34
2019-05-25T18:51:37.139Z,15.33
2019-05-25T18:54:06.809Z,15.32
2019-05-25T18:56:36.876Z,15.28
2019-05-25T18:59:06.612Z,15.25
2019-05-25T19:01:36.311Z,15.23
2019-05-25T19:04:06.062Z,15.18
2019-05-25T19:06:35.753Z,15.15
2019-05-25T19:09:07.753Z,15.10
2019-05-25T19:11:37.453Z,15.06
2019-05-25T19:14:07.120Z,15.03
2019-05-25T19:16:36.911Z,14.99
2019-05-25T19:19:06.680Z,15.00
2019-05-25T19:21:36.444Z,14.97
2019-05-25T19:24:06.206Z,14.92
2019-05-25T19:26:36.071Z,14.91
2019-05-25T19:29:06.142Z,14.90
2019-05-25T19:31:35.801Z,14.89
2019-05-25T19:34:05.589Z,14.84
2019-05-25T19:36:35.266Z,14.81
2019-05-25T19:39:07.686Z,14.78
2019-05-25T19:41:37.360Z,14.75
2019-05-25T19:44:07.119Z,14.74
2019-05-25T19:46:36.835Z,14.72
2019-05-25T19:49:06.586Z,14.71
2019-05-25T19:51:36.304Z,14.68
2019-05-25T19:54:05.970Z,14.65
2019-05-25T19:56:35.654Z,14.65
2019-05-25T19:59:05.318Z,14.65
2019-05-25T20:01:35.068Z,14.64
2019-05-25T20:04:04.811Z,14.62
2019-05-25T20:06:34.484Z,14.60
2019-05-25T20:09:06.031Z,14.55
2019-05-25T20:11:35.696Z,14.51
2019-05-25T20:14:05.548Z,14.48
2019-05-25T20:16:35.248Z,14.45
2019-05-25T20:19:05.010Z,14.41
2019-05-25T20:21:34.853Z,14.37
2019-05-25T20:24:04.639Z,14.35
2019-05-25T20:26:34.391Z,14.36
2019-05-25T20:29:04.126Z,14.38
2019-05-25T20:31:33.817Z,14.38
2019-05-25T20:34:03.596Z,14.39
2019-05-25T20:36:33.285Z,14.42
2019-05-25T20:39:02.973Z,14.42
2019-05-25T20:41:33.333Z,14.40
2019-05-25T20:44:03.516Z,14.35
2019-05-25T20:46:33.285Z,14.29
2019-05-25T20:49:03.059Z,14.23
2019-05-25T20:51:32.742Z,14.21
2019-05-25T20:54:02.416Z,14.15
2019-05-25T20:56:32.105Z,14.10
2019-05-25T20:59:01.834Z,14.05
2019-05-25T21:01:32.465Z,13.94
2019-05-25T21:04:02.181Z,13.82
2019-05-25T21:06:32.187Z,13.71
2019-05-25T21:09:01.968Z,13.66
2019-05-25T21:11:31.701Z,13.67
2019-05-25T21:14:01.476Z,13.65
2019-05-25T21:16:31.199Z,13.61
2019-05-25T21:19:03.069Z,13.55
2019-05-25T21:21:32.320Z,13.50
2019-05-25T21:24:02.207Z,13.44
2019-05-25T21:26:32.207Z,13.38
2019-05-25T21:29:02.094Z,13.31
2019-05-25T21:31:31.998Z,13.26
2019-05-25T21:34:01.769Z,13.24
2019-05-25T21:36:31.953Z,13.22
2019-05-25T21:39:01.706Z,13.21
2019-05-25T21:41:32.799Z,13.18
2019-05-25T21:44:02.546Z,13.15
2019-05-25T21:46:32.316Z,13.11
2019-05-25T21:49:02.650Z,13.11
2019-05-25T21:51:32.484Z,13.07
2019-05-25T21:54:02.388Z,12.98
2019-05-25T21:56:32.164Z,12.90
2019-05-25T21:59:02.164Z,12.82
2019-05-25T22:01:32.089Z,12.74
2019-05-25T22:04:02.260Z,12.64
2019-05-25T22:06:32.273Z,12.55
2019-05-25T22:09:02.035Z,12.42
2019-05-25T22:11:33.034Z,12.37
2019-05-25T22:14:09.297Z,12.31
2019-05-25T22:16:39.697Z,12.12
2019-05-25T22:19:09.641Z,11.95
2019-05-25T22:21:39.439Z,11.83
2019-05-25T22:24:10.481Z,11.74
2019-05-25T22:26:41.453Z,11.76
2019-05-25T22:29:11.358Z,11.78
2019-05-25T22:31:41.496Z,11.76
2019-05-25T22:34:11.198Z,11.73
2019-05-25T22:36:41.377Z,11.61
2019-05-25T22:39:11.205Z,11.55
2019-05-25T22:41:41.030Z,11.50
2019-05-25T22:44:10.843Z,11.41
2019-05-25T22:46:40.659Z,11.25
2019-05-25T22:49:10.523Z,11.11
2019-05-25T22:51:40.525Z,11.01
2019-05-25T22:54:10.414Z,10.88
2019-05-25T22:56:40.317Z,10.78
2019-05-25T22:59:10.085Z,10.70
2019-05-25T23:01:40.055Z,10.63
2019-05-25T23:04:09.786Z,10.59
2019-05-25T23:06:56.055Z,10.57
2019-05-25T23:09:11.245Z,10.50
2019-05-25T23:11:41.019Z,10.45
2019-05-25T23:14:10.836Z,10.35
2019-05-25T23:16:40.754Z,10.28
2019-05-25T23:19:10.541Z,10.22
2019-05-25T23:21:40.520Z,10.18
2019-05-25T23:24:10.410Z,10.12
2019-05-25T23:26:40.234Z,10.06
2019-05-25T23:29:10.058Z,10.00
2019-05-25T23:31:39.909Z,9.98
2019-05-25T23:34:09.652Z,9.93
2019-05-25T23:36:39.436Z,9.91
2019-05-25T23:39:09.360Z,9.86
2019-05-25T23:41:39.252Z,9.84
2019-05-25T23:44:09.086Z,9.84
2019-05-25T23:46:38.938Z,9.84
2019-05-25T23:49:08.794Z,9.82
2019-05-25T23:51:38.597Z,9.78
2019-05-25T23:54:08.386Z,9.77
2019-05-25T23:56:38.165Z,9.75
2019-05-25T23:59:07.879Z,9.73
